Saint Médard d'Aunis (17)                   Août 2019                              
  Température (°C) - Abri Young à ventilation mécanique 43502 Humidité Vent (km/h) PeetBros Précipitations (mm) Pression (hPa) Divers  
Date Maxi Mini Moy de 1440 relevés Moy (tx+tn)/2 Index chaleur moyen Index chaleur maxi Froid dû au vent moy  Froid dû au vent mini/1min   Amplitude (Tx-Tn) Tx OMM/1min Tn OMM/1min Tm OMM/1min Relative maxi Relative mini Relative moy de 1440 relevés Relative moy (hx+hn)/2 Point de rosée maxi Point de rosée mini Point de rosée moy 1440 relevés Vent moy maxi (10min) Vent  moyen (24h) Direction dominante Rafales (km/h) maxi Direction rafale maxi Rafales moy (24h) Rafales (km/h)   maxi Total du jour (mm) Durée en heures et dixièmes Intensité maxi sur 1 min (mm/h) Maxi Mini Moy de 1440 relevés Moy (px+pn)/2 Variation Epaisseur neige (cm) Remarques diverses    
01/08/2019 25,1 11,9 18,13 18,50 18,38 24,8 18,04 11,9 13,2 25,1 11,9 18,50 95% 45% 80,1% 70,0% 18,0 11,1 14,29 20,10 6,42 NNE 27,4 NW 8,81 27,4 4,4 1,0 36,0 1019,2 1016,3 1017,54 1017,75 2,9   Ciel 0/8 à 6/8 le matin, entre 4/8 et 8/8 l'après-midi, pluie, orages  
02/08/2019 27,3 12,3 19,55 19,80 19,82 27,6 19,20 12,3 15,0 27,1 12,3 19,70 97% 45% 77,4% 71,0% 18,0 11,9 14,96 23,46 7,81 W 30,6 W 10,29 31,4 0,2 0,1 12,0 1018,8 1017,3 1018,06 1018,05 1,5   Ciel entre 0/8 et 2/8  
03/08/2019 30,1 12,1 21,15 21,10 21,36 30,5 20,93 12,2 18,0 29,9 12,2 21,05 95% 43% 68,0% 69,0% 17,5 11,2 14,29 20,42 8,36 WNW 30,6 WSW 11,39 31,5 0,0 0,0 0,0 1017,7 1014,3 1016,01 1016,00 3,4   Ciel entre 0/8 et 1/8  
04/08/2019 26,9 14,8 20,49 20,85 20,65 27,0 19,95 14,7 12,1 26,8 14,8 20,80 94% 39% 70,4% 66,5% 16,6 10,8 14,38 23,63 11,68 WNW 30,6 W 15,11 33,6 0,0 0,0 0,0 1016,7 1014,4 1015,35 1015,55 2,3   Ciel 0/8 à 6/8 le matin, 6/8 à 4/8 l'après-midi  
05/08/2019 25,9 14,5 20,03 20,20 20,54 26,3 19,44 14,5 11,4 25,7 14,5 20,10 97% 59% 80,8% 78,0% 18,6 13,9 16,36 21,86 10,29 WSW 33,8 W 13,28 34,8 0,0 0,0 0,0 1016,9 1015,1 1016,07 1016,00 1,8   Ciel entre 4/8 et 6/8 le matin, 4/8 à 3/8 l'après-midi, 0/8 le soir  
06/08/2019 25,9 14,4 20,04 20,15 20,76 26,8 19,54 14,4 11,5 25,8 14,4 20,10 97% 66% 85,6% 81,5% 20,1 13,8 17,41 24,75 10,51 WSW 33,8 WSW 13,72 34,5 0,8 0,3 12,0 1015,4 1010,9 1013,36 1013,15 4,5   Ciel 2/8 à 8/8 le matin, entre 4/8 et 8/8 l'après-midi, 8/8 le soir, pluie   
07/08/2019 25,3 14,9 20,36 20,10 20,83 25,3 20,14 14,9 10,4 25,1 14,9 20,00 96% 48% 78,7% 72,0% 19,3 13,0 16,19 23,47 8,64 W 37,0 WSW 11,83 39,8 1,4 0,4 12,0 1013,3 1009,8 1011,96 1011,55 3,5   Ciel 8/8 à 6/8 le matin, pluie, 6/8 à 1/8 l'après-midi, 3/8 le soir  
08/08/2019 31,8 14,6 23,42 23,20 24,25 33,8 23,33 14,6 17,2 31,6 14,6 23,10 96% 46% 71,7% 71,0% 19,9 13,9 17,44 19,14 6,72 SW 29,0 S 9,57 30,7 0,8 0,2 24,0 1012,9 1006,9 1010,04 1009,90 6,0   Ciel 5/8 à 3/8, 8/8 en début de nuit, pluie  
09/08/2019 24,3 19,4 21,44 21,85 22,26 25,3 20,31 16,1 4,9 24,1 19,4 21,75 95% 66% 80,7% 80,5% 21,2 15,4 17,91 36,69 16,09 WSW 51,5 W 21,33 52,8 1,4 0,5 12,0 1014,6 1004,8 1009,97 1009,70 9,8   Ciel entre 6/8 et 8/8, pluie le matin  
10/08/2019 25,9 11,6 19,82 18,75 20,15 26,2 18,15 11,6 14,3 25,8 11,6 18,70 94% 54% 73,9% 74,0% 16,6 10,5 14,81 28,99 18,77 WSW 46,7 WSW 23,53 46,6 0,2 0,1 12,0 1020,8 1014,5 1018,63 1017,65 6,3   Ciel 6/8 à 4/8 le matin, 4/8 à 2/8 l'après-midi  
11/08/2019 21,6 11,3 16,39 16,45 16,64 21,9 15,88 11,3 10,3 21,5 11,4 16,45 96% 63% 87,6% 79,5% 18,0 10,0 14,22 22,66 8,98 WSW 33,8 SW 12,06 35,0 7,0 2,4 12,0 1020,0 1016,9 1018,54 1018,45 3,1   Ciel 2/8 à 8/8 le matin, pluie, entre 5/8 et 8/8 l'après-midi  
12/08/2019 22,8 12,6 17,49 17,70 17,44 22,7 16,26 12,1 10,2 22,7 12,6 17,65 96% 50% 76,0% 73,0% 16,3 9,6 12,91 34,28 15,58 WNW 46,7 W 20,12 49,2 0,2 0,1 12,0 1023,5 1017,7 1020,23 1020,60 5,8   Ciel entre 3/8 et 6/8 le matin, traces de précipitations, 3/8 à 0/8 ensuite  
13/08/2019 22,9 9,6 16,20 16,25 16,06 22,5 15,70 9,2 13,3 22,8 9,7 16,25 95% 46% 76,0% 70,5% 13,5 8,9 11,54 24,28 8,77 W 37,0 W 11,64 37,5 0,0 0,0 0,0 1024,1 1021,7 1022,92 1022,90 2,4   Ciel entre 0/8 et 6/8 le matin, 4/8 à 2/8 l'après-midi  
14/08/2019 23,8 9,9 18,07 16,85 18,33 23,9 17,43 9,9 13,9 23,7 9,9 16,80 96% 47% 79,6% 71,5% 18,3 9,3 14,15 20,90 11,28 SW 38,6 SW 15,76 38,5 1,0 0,4 12,0 1021,8 1017,4 1019,46 1019,60 4,4   Ciel 2/8 à 6/8 le matin, 6/8 à 8/8 l'après-midi, pluie le soir  
15/08/2019 22,6 11,2 18,62 16,90 18,72 22,7 17,93 11,3 11,4 22,6 11,3 16,95 95% 56% 75,1% 75,5% 16,0 10,5 13,92 22,50 12,61 WNW 30,6 W 16,21 31,4 0,2 0,1 12,0 1022,7 1017,6 1020,77 1020,15 5,1   Ciel entre 6/8 et 8/8, 3/8 en début de nuit  
16/08/2019 25,6 9,2 17,45 17,40 17,61 25,3 17,15 9,1 16,4 25,3 9,2 17,25 96% 48% 78,4% 72,0% 16,5 8,4 13,25 22,18 8,25 WSW 30,6 WSW 11,00 31,5 0,0 0,0 0,0 1022,1 1015,2 1018,27 1018,65 6,9   Ciel entre 0/8 et 8/8 le matin, entre 4/8 et 5/8 ensuite, 7/8 le soir  
17/08/2019 22,8 18,1 20,63 20,45 21,59 23,9 19,55 17,5 4,7 22,7 18,1 20,40 94% 82% 88,2% 88,0% 20,4 16,1 18,60 27,20 16,20 SW 45,1 SW 22,94 46,6 0,6 0,3 12,0 1015,3 1010,5 1013,09 1012,90 4,8   Ciel 7/8 à 8/8, pluie l'après-midi  
18/08/2019 22,1 11,6 18,26 16,85 18,72 22,3 17,46 11,7 10,5 22,0 11,7 16,85 96% 59% 85,3% 77,5% 19,7 10,9 15,62 29,64 13,52 WNW 43,5 WSW 17,57 43,8 3,2 0,6 36,0 1018,8 1008,1 1013,10 1013,45 10,7   Ciel 8/8 le matin, pluie,8/8 à 5/8 l'après-midi, 1/8 le soir  
19/08/2019 23,6 9,3 16,96 16,45 16,93 23,5 16,50 9,0 14,3 23,4 9,3 16,35 96% 52% 75,9% 74,0% 15,1 8,7 12,30 25,57 9,90 NW 37,0 WSW 13,04 38,5 0,6 0,3 12,0 1023,1 1018,7 1021,07 1020,90 4,4   Ciel entre 1/8 et 7/8 le matin, averses, 6/8 à 2/8 l'après-midi  
20/08/2019 25,4 10,0 17,83 17,70 17,67 24,8 17,51 9,5 15,4 25,2 10,1 17,65 96% 37% 68,8% 66,5% 13,9 8,5 11,26 21,38 8,91 N 30,6 WNW 12,04 31,1 0,0 0,0 0,0 1026,5 1022,3 1024,48 1024,40 4,2   Ciel entre 0/8 et 2/8  
21/08/2019 27,9 10,7 19,59 19,30 19,16 26,9 19,32 10,4 17,2 27,8 10,7 19,25 88% 30% 58,2% 59,0% 13,7 7,8 10,13 18,98 9,08 NNE 32,2 NNW 12,40 39,7 0,0 0,0 0,0 1026,0 1022,7 1024,50 1024,35 3,3   Ciel entre 2/8 et 4/8, voilé  
22/08/2019 29,9 11,4 21,40 20,65 20,78 28,9 21,15 11,1 18,5 29,8 11,7 20,75 86% 26% 51,6% 56,0% 12,4 7,3 9,79 19,78 10,69 NNE 32,2 NNE 14,74 36,0 0,0 0,0 0,0 1025,1 1021,8 1023,48 1023,45 3,3   Ciel 0/8  
                                                                           
                                                                           
                                                                           
                                                                           
                                                                           
                                                                           
                                                                           
                                                                           
                                                                           
  Température (°C) - Abri Young à ventilation mécanique 43502 Humidité Vent (km/h) PeetBros Précipitations (mm) Pression (hPa) Divers  
  Maxi Mini Moy de 1440 relevés Moy (tx+tn)/2 Index chaleur moyen Index chaleur maxi Froid dû au vent moy  Froid dû au vent mini/1min   Amplitude (Tx-Tn) Tx OMM/1min Tn OMM/1min Tm OMM/1min Relative maxi Relative mini Relative moy de 1440 relevés Relative moy (hx+hn)/2 Point de rosée maxi Point de rosée mini Point de rosée moy 1440 relevés Vent moy maxi (10min) Vent  moyen (24h) Direction dominante Rafales (km/h) maxi Direction rafale maxi Rafales moy (24h) Rafales (km/h)   maxi Total du jour (mm) Durée en heures et dixièmes Intensité maxi sur 1 min (mm/h) Maxi Mini Moy de 1440 relevés Moy (px+pn)/2 Variation Epaisseur neige (cm) Remarques diverses  
Maxi 31,8 19,4 23,42 23,20 24,25 33,8 23,33 17,5 18,5 31,6 19,4 23,10 97% 82% 88,2% 88,0% 21,2 16,1 18,60 36,69 18,77 W 51,5 W 23,53 52,8 7,0 2,4 36,0 1026,5 1022,7 1024,50 1024,40 10,7 0,0    
Mini 21,6 9,2 16,20 16,25 16,06 21,9 15,70 9,0 4,7 21,5 9,2 16,25 86% 26% 51,6% 56,0% 12,4 7,3 9,79 18,98 6,42   27,4   8,81 27,4       1012,9 1004,8 1009,97 1009,70 1,5      
Moy 25,43 12,52 19,24 18,98 19,48 25,59 18,67 12,24 12,91 25,30 12,56 18,93 94,8% 50,3% 75,8% 72,6% 17,25 10,98 14,35 24,18 10,87   35,86   14,47 37,36       1019,79 1015,22 1017,59 1017,50 4,56      
Total                                                     22,0 6,7             0,0    
   
  Observations        
Jours Rafales >= 36,0 km/h Rafales >= 57,6 km/h Rafales >= 75,6 km/h Rafales >= 100,8 km/h Précipi. >= 0,1 mm Précipi. >= 1,0 mm Précipi. >= 5,0 mm Précipi. >= 10,0 mm Tx <= 0 Tx <= -5 Tx <= -10 Tx >= 25 Tx >= 30 Tx >= 35 Tx >= 40 Tn <= 0 Tn <= -5 Tn <= -10 Tn <= -15 Tn <= -20 T moy <= 0 T moy <=     -5 T moy <=     -10 T moy >= 20 T moy >= 25 T moy >= 30 Grêle Grésil Brouillard Brume Orage Neige        
01/08/2019 0 0 0 0 1 1 0 0 0 0 0 1 0 0 0 0 0 0 0 0 0 0 0 0 0 0 0 0 0 0 1 0    
02/08/2019 0 0 0 0 1 0 0 0 0 0 0 1 0 0 0 0 0 0 0 0 0 0 0 0 0 0 0 0 0 0 0 0    
03/08/2019 0 0 0 0 0 0 0 0 0 0 0 1 1 0 0 0 0 0 0 0 0 0 0 0 0 0 0 0 0 0 0 0    
04/08/2019 0 0 0 0 0 0 0 0 0 0 0 1 0 0 0 0 0 0 0 0 0 0 0 0 0 0 0 0 0 0 0 0    
05/08/2019 0 0 0 0 0 0 0 0 0 0 0 1 0 0 0 0 0 0 0 0 0 0 0 0 0 0 0 0 0 0 0 0    
06/08/2019 0 0 0 0 1 0 0 0 0 0 0 1 0 0 0 0 0 0 0 0 0 0 0 0 0 0 0 0 0 0 0 0    
07/08/2019 1 0 0 0 1 1 0 0 0 0 0 1 0 0 0 0 0 0 0 0 0 0 0 0 0 0 0 0 0 0 0 0    
08/08/2019 0 0 0 0 1 0 0 0 0 0 0 1 1 0 0 0 0 0 0 0 0 0 0 0 0 0 0 0 0 0 0 0    
09/08/2019 1 0 0 0 1 1 0 0 0 0 0 0 0 0 0 0 0 0 0 0 0 0 0 0 0 0 0 0 0 0 0 0    
10/08/2019 1 0 0 0 1 0 0 0 0 0 0 1 0 0 0 0 0 0 0 0 0 0 0 0 0 0 0 0 0 0 0 0    
11/08/2019 0 0 0 0 1 1 1 0 0 0 0 0 0 0 0 0 0 0 0 0 0 0 0 0 0 0 0 0 0 0 0 0    
12/08/2019 1 0 0 0 1 0 0 0 0 0 0 0 0 0 0 0 0 0 0 0 0 0 0 0 0 0 0 0 0 0 0 0    
13/08/2019 1 0 0 0 0 0 0 0 0 0 0 0 0 0 0 0 0 0 0 0 0 0 0 0 0 0 0 0 0 0 0 0    
14/08/2019 1 0 0 0 1 1 0 0 0 0 0 0 0 0 0 0 0 0 0 0 0 0 0 0 0 0 0 0 0 0 0 0    
15/08/2019 0 0 0 0 1 0 0 0 0 0 0 0 0 0 0 0 0 0 0 0 0 0 0 0 0 0 0 0 0 0 0 0    
16/08/2019 0 0 0 0 0 0 0 0 0 0 0 1 0 0 0 0 0 0 0 0 0 0 0 0 0 0 0 0 0 0 0 0    
17/08/2019 1 0 0 0 1 0 0 0 0 0 0 0 0 0 0 0 0 0 0 0 0 0 0 0 0 0 0 0 0 0 0 0    
18/08/2019 1 0 0 0 1 1 0 0 0 0 0 0 0 0 0 0 0 0 0 0 0 0 0 0 0 0 0 0 0 0 0 0    
19/08/2019 1 0 0 0 1 0 0 0 0 0 0 0 0 0 0 0 0 0 0 0 0 0 0 0 0 0 0 0 0 0 0 0    
20/08/2019 0 0 0 0 0 0 0 0 0 0 0 1 0 0 0 0 0 0 0 0 0 0 0 0 0 0 0 0 0 0 0 0    
21/08/2019 0 0 0 0 0 0 0 0 0 0 0 1 0 0 0 0 0 0 0 0 0 0 0 0 0 0 0 0 0 0 0 0    
22/08/2019 0 0 0 0 0 0 0 0 0 0 0 1 0 0 0 0 0 0 0 0 0 0 0 0 0 0 0 0 0 0 0 0    
                                                                     
                                                                     
                                                                     
                                                                     
                                                                     
                                                                     
                                                                         
                                                                     
                                                                     
   
  Rafales >= 36,0 km/h Rafales >= 57,6 km/h Rafales >= 75,6 km/h Rafales >= 100,8 km/h Précipi. >= 0,1 mm Précipi. >= 1,0 mm Précipi. >= 5,0 mm Précipi. >= 10,0 mm Tx <=0 Tx <= -5 Tx <= -10 Tx >= 25 Tx >= 30 Tx >= 35 Tx >= 40 Tn <= 0 Tn <= -5 Tn <= -10 Tn <= -15 Tn <= -20 T moy <= 0 T moy <=  -5 T moy <=  -10 T moy >= 20 T moy >= 25 T moy >= 30 Grêle Grésil Brouillard Brume Orage Neige        
Total 9 0 0 0 14 6 1 0 0 0 0 13 2 0 0 0 0 0 0 0 0 0 0 0 0 0 0 0 0 0 1 0